PST,Max TemperatureF,Mean TemperatureF,Min TemperatureF,Max Dew PointF,MeanDew PointF,Min DewpointF,Max Humidity, Mean Humidity, Min Humidity, Max Sea Level PressureIn, Mean Sea Level PressureIn, Min Sea Level PressureIn, Max VisibilityMiles, Mean VisibilityMiles, Min VisibilityMiles, Max Wind SpeedMPH, Mean Wind SpeedMPH, Max Gust SpeedMPH,PrecipitationIn, CloudCover, Events, WindDirDegrees
2014-1-1,55,40,26,37,31,27,100,84,47,30.32,30.26,30.19,10,10,5,4,0,,0.00,0,,324
2014-1-2,53,40,28,39,34,28,100,88,47,30.29,30.21,30.15,10,7,0,4,0,,0.00,2,,119
2014-1-3,57,44,30,41,34,28,100,87,51,30.16,30.10,30.01,10,8,0,5,0,,0.00,1,,256
2014-1-4,53,38,24,34,26,18,100,76,35,30.30,30.19,30.09,10,9,0,6,1,,0.00,1,,266
2014-1-5,62,43,24,30,21,14,74,56,15,30.35,30.28,30.19,10,10,5,8,2,,0.00,0,,253
2014-1-6,44,36,28,32,27,23,93,73,49,30.35,30.28,30.22,10,10,5,5,0,,0.00,2,,284
2014-1-7,48,37,26,36,29,25,93,83,53,30.23,30.18,30.11,10,10,6,5,0,,0.00,4,,270
2014-1-8,53,40,26,39,33,27,100,88,54,30.22,30.16,30.09,10,9,4,5,1,,0.00,3,,274
2014-1-9,48,40,32,39,35,30,100,87,54,30.24,30.18,30.12,10,7,0,7,1,,0.00,6,,263
2014-1-10,51,40,28,41,34,28,100,88,58,30.33,30.24,30.18,10,8,0,5,0,,0.00,4,,284
2014-1-11,50,41,32,43,36,32,100,92,54,30.26,30.11,30.00,10,8,1,14,2,24,0.29,6,,256
2014-1-12,41,36,32,36,33,32,100,92,75,30.54,30.41,30.25,10,9,1,5,1,,0.00,7,,285
2014-1-13,48,39,30,39,34,30,100,95,71,30.61,30.57,30.52,10,7,0,5,1,,0.00,5,,268
2014-1-14,46,37,28,39,31,27,100,95,71,30.68,30.60,30.56,10,4,0,5,1,,0.00,5,,293
2014-1-15,50,38,26,39,30,27,100,90,58,30.59,30.50,30.41,10,6,0,4,1,,0.00,4,,277
2014-1-16,55,40,24,39,28,23,100,81,41,30.46,30.37,30.28,10,9,4,4,0,,0.00,1,,267
2014-1-17,57,42,26,41,30,25,93,81,44,30.32,30.27,30.20,10,10,8,4,0,,0.00,0,,280
2014-1-18,55,40,26,37,30,25,100,81,36,30.30,30.22,30.14,10,9,5,4,0,,0.00,0,,258
2014-1-19,55,40,26,39,30,27,100,81,44,30.25,30.20,30.15,10,10,5,6,0,,0.00,0,,271
2014-1-20,57,40,24,36,28,25,100,77,36,30.35,30.27,30.22,10,10,5,4,0,,0.00,0,,252
2014-1-21,57,40,23,32,26,19,93,74,29,30.40,30.33,30.26,10,10,7,4,0,,0.00,0,,276
2014-1-22,55,40,24,37,27,21,93,74,41,30.32,30.18,30.06,10,10,2,5,0,,0.00,0,,271
2014-1-23,62,45,28,27,22,18,86,47,18,30.20,30.12,30.05,10,10,10,17,4,26,0.00,0,,13
2014-1-24,64,48,32,36,26,21,80,51,19,30.37,30.27,30.21,10,10,7,7,2,,0.00,0,,274
2014-1-25,62,44,26,36,28,25,93,69,29,30.38,30.30,30.21,10,10,5,7,1,,0.00,0,,265
2014-1-26,62,44,26,37,28,23,93,70,27,30.23,30.16,30.06,10,10,2,5,0,,0.00,0,,300
2014-1-27,50,39,28,41,32,27,100,80,47,30.23,30.18,30.13,10,10,5,4,0,,0.00,2,,260
2014-1-28,57,49,41,46,43,39,100,87,67,30.28,30.22,30.18,10,9,2,5,0,,0.00,7,,270
2014-1-29,50,44,39,46,44,39,100,93,71,30.18,30.07,30.00,10,7,1,7,1,,0.15,5,,277
2014-1-30,50,41,32,39,34,27,100,77,40,30.00,29.91,29.85,10,10,5,9,2,,0.00,4,,288
2014-1-31,50,38,26,32,26,19,100,75,32,30.13,30.05,29.94,10,10,9,12,3,22,0.00,2,,290